Time;durP1;ratioP1;P1;durP2;ratioP2;P2;SDS_P1;SDS_P2;PMS_P1;PMS_P2;Temp;Humidity;BMP_temperature;BMP_pressure;BME280_temperature;BME280_humidity;BME280_pressure;Samples;Min_cycle;Max_cycle;Signal;HPM_P1;HPM_P2
2023/02/12 00:01:27;;;;;;;15.75;10.80;;;6.60;99.90;;;;;;4954853;28;20390;-83
2023/02/12 00:03:53;;;;;;;24.65;11.20;;;6.10;99.90;;;;;;4974900;28;20183;-83
2023/02/12 00:06:27;;;;;;;22.52;10.75;;;6.00;99.90;;;;;;4977363;28;20113;-83
2023/02/12 00:08:56;;;;;;;27.63;11.20;;;6.00;99.90;;;;;;4984970;28;20532;-83
2023/02/12 00:11:27;;;;;;;20.60;11.98;;;6.40;99.90;;;;;;4970645;28;20113;-81
2023/02/12 00:13:56;;;;;;;31.63;12.73;;;6.40;99.90;;;;;;4954353;28;20082;-82
2023/02/12 00:16:30;;;;;;;25.50;11.52;;;6.10;99.90;;;;;;4984208;28;20279;-81
2023/02/12 00:18:57;;;;;;;26.38;13.05;;;5.80;99.90;;;;;;4970287;28;20085;-81
2023/02/12 00:21:25;;;;;;;23.70;12.27;;;7.10;99.90;;;;;;4956462;28;20034;-81
2023/02/12 00:23:53;;;;;;;25.58;12.55;;;6.30;99.90;;;;;;4953732;28;20043;-81
2023/02/12 00:26:23;;;;;;;24.40;12.45;;;6.90;99.90;;;;;;4968422;28;20082;-81
2023/02/12 00:28:49;;;;;;;24.45;11.77;;;6.80;99.90;;;;;;4952423;28;20055;-81
2023/02/12 00:31:28;;;;;;;22.40;12.50;;;6.40;99.90;;;;;;4965555;28;20102;-82
2023/02/12 00:34:02;;;;;;;26.58;12.43;;;6.10;99.90;;;;;;4954121;28;20071;-81
2023/02/12 00:36:30;;;;;;;21.83;12.52;;;6.30;99.90;;;;;;4951870;28;20043;-81
2023/02/12 00:38:57;;;;;;;28.52;13.52;;;6.60;99.90;;;;;;4956515;28;20088;-81
2023/02/12 00:41:25;;;;;;;24.77;13.20;;;6.10;99.90;;;;;;4966595;28;20042;-81
2023/02/12 00:43:52;;;;;;;25.08;12.10;;;6.20;99.90;;;;;;4965967;28;20552;-80
2023/02/12 00:46:20;;;;;;;28.40;13.70;;;6.40;99.90;;;;;;4971963;28;20042;-80
2023/02/12 00:48:49;;;;;;;27.88;12.95;;;6.10;99.90;;;;;;4956516;28;20038;-81
2023/02/12 00:51:15;;;;;;;27.73;12.65;;;6.90;99.90;;;;;;4969812;28;20488;-81
2023/02/12 00:53:48;;;;;;;22.83;13.48;;;7.00;99.90;;;;;;4951809;28;20047;-81
2023/02/12 00:56:31;;;;;;;25.92;14.35;;;6.20;99.90;;;;;;4970586;28;20124;-81
2023/02/12 00:59:00;;;;;;;19.02;11.50;;;6.10;99.90;;;;;;4956315;28;20047;-81
2023/02/12 01:01:26;;;;;;;22.10;12.20;;;6.20;99.90;;;;;;4954036;28;20038;-81
2023/02/12 01:03:57;;;;;;;27.27;13.70;;;6.30;99.90;;;;;;4952891;28;20416;-80
2023/02/12 01:06:27;;;;;;;25.95;13.20;;;6.00;99.90;;;;;;4955964;28;20097;-81
2023/02/12 01:08:56;;;;;;;25.13;13.90;;;6.10;99.90;;;;;;4968250;28;20249;-81
2023/02/12 01:11:27;;;;;;;25.83;12.68;;;6.50;99.90;;;;;;4969644;28;20039;-80
2023/02/12 01:13:56;;;;;;;30.98;15.05;;;6.40;99.90;;;;;;4964358;28;20041;-81
2023/02/12 01:16:25;;;;;;;29.20;15.40;;;5.80;99.90;;;;;;4968066;28;20073;-81
2023/02/12 01:18:53;;;;;;;29.17;14.70;;;5.90;99.90;;;;;;4955030;28;20093;-81
2023/02/12 01:21:23;;;;;;;26.85;15.52;;;5.70;99.90;;;;;;4952491;28;20039;-81
2023/02/12 01:23:58;;;;;;;30.20;14.48;;;6.60;99.90;;;;;;4968361;28;20070;-81
2023/02/12 01:26:28;;;;;;;23.60;14.23;;;6.10;99.90;;;;;;4967868;28;20043;-81
2023/02/12 01:29:00;;;;;;;26.85;14.60;;;5.60;99.90;;;;;;4950113;28;20050;-81
2023/02/12 01:31:28;;;;;;;34.85;14.93;;;6.70;99.90;;;;;;4949896;28;20149;-81
2023/02/12 01:33:56;;;;;;;25.73;15.40;;;6.00;99.90;;;;;;4951731;28;20047;-81
2023/02/12 01:36:26;;;;;;;26.80;15.15;;;6.70;99.90;;;;;;4953100;28;20169;-81
2023/02/12 01:38:58;;;;;;;27.73;16.20;;;6.30;99.90;;;;;;4967451;28;20118;-81
2023/02/12 01:41:40;;;;;;;25.27;14.52;;;6.20;99.90;;;;;;4954745;28;20043;-81
2023/02/12 01:44:11;;;;;;;29.42;14.63;;;5.30;99.90;;;;;;4962942;28;20142;-81
2023/02/12 01:46:44;;;;;;;20.63;13.77;;;6.00;99.90;;;;;;4964781;28;20035;-81
2023/02/12 01:49:37;;;;;;;19.45;12.98;;;6.90;99.90;;;;;;4954326;28;20047;-81
2023/02/12 01:52:26;;;;;;;23.23;14.13;;;5.90;99.90;;;;;;4970802;28;20589;-81
2023/02/12 01:54:59;;;;;;;23.92;14.13;;;6.30;99.90;;;;;;4968163;28;20059;-81
2023/02/12 01:57:31;;;;;;;26.17;14.90;;;5.90;99.90;;;;;;4981447;28;20074;-81
2023/02/12 02:00:23;;;;;;;25.33;15.95;;;5.90;99.90;;;;;;4950273;28;20386;-81
2023/02/12 02:02:59;;;;;;;26.58;14.52;;;5.10;99.90;;;;;;4964250;28;20043;-80
2023/02/12 02:06:08;;;;;;;32.63;15.73;;;5.90;99.90;;;;;;4952162;28;20047;-81
2023/02/12 02:08:46;;;;;;;25.17;13.73;;;5.90;99.90;;;;;;4969751;28;20039;-81
2023/02/12 02:16:55;;;;;;;21.38;13.73;;;5.80;99.90;;;;;;4968870;28;20105;-81
2023/02/12 02:19:40;;;;;;;19.02;13.63;;;5.90;99.90;;;;;;4964511;28;20046;-81
2023/02/12 02:23:11;;;;;;;24.20;14.68;;;5.80;99.90;;;;;;4948333;28;21265;-81
2023/02/12 02:25:51;;;;;;;24.98;14.07;;;5.80;99.90;;;;;;4937135;28;20154;-81
2023/02/12 02:31:53;;;;;;;22.90;14.40;;;5.80;99.90;;;;;;4957612;28;20621;-81
2023/02/12 02:34:59;;;;;;;22.70;15.02;;;6.80;99.90;;;;;;4980570;28;20117;-81
2023/02/12 02:37:49;;;;;;;21.45;13.65;;;5.80;99.90;;;;;;4935643;28;20050;-81
2023/02/12 02:40:41;;;;;;;21.67;14.13;;;6.50;99.90;;;;;;4953326;28;20034;-81
2023/02/12 02:43:14;;;;;;;27.42;14.48;;;5.70;99.90;;;;;;4960299;28;20050;-81
2023/02/12 02:46:13;;;;;;;22.33;12.90;;;6.00;99.90;;;;;;4965217;28;20046;-80
2023/02/12 02:49:07;;;;;;;21.00;13.18;;;5.80;99.90;;;;;;4946012;28;20047;-80
2023/02/12 02:51:48;;;;;;;20.60;12.75;;;5.90;99.90;;;;;;4962952;28;20051;-81
2023/02/12 02:54:40;;;;;;;28.83;14.15;;;5.80;99.90;;;;;;4948382;28;20137;-81
2023/02/12 02:57:36;;;;;;;20.40;13.20;;;5.80;99.90;;;;;;4964938;28;20046;-81
2023/02/12 03:00:51;;;;;;;20.48;12.85;;;5.80;99.90;;;;;;4969703;28;20039;-81
2023/02/12 03:03:31;;;;;;;;;;;5.80;99.90;;;;;;4951925;28;20051;-81
2023/02/12 03:06:25;;;;;;;24.08;12.43;;;5.80;99.90;;;;;;4950537;28;19926;-81
2023/02/12 03:09:04;;;;;;;18.50;12.02;;;6.40;99.90;;;;;;4950626;28;20078;-80
2023/02/12 03:11:35;;;;;;;19.05;12.57;;;5.80;99.90;;;;;;4965549;28;20039;-81
2023/02/12 03:14:40;;;;;;;24.08;13.32;;;5.80;99.90;;;;;;4966568;28;20042;-81
2023/02/12 03:17:34;;;;;;;14.68;12.32;;;5.90;99.90;;;;;;4932224;28;20410;-81
2023/02/12 03:20:14;;;;;;;24.55;13.20;;;5.80;99.90;;;;;;4964624;28;20425;-81
2023/02/12 03:22:47;;;;;;;24.75;13.40;;;5.80;99.90;;;;;;4953450;28;20046;-81
2023/02/12 03:25:29;;;;;;;20.52;12.48;;;6.00;99.90;;;;;;4944963;28;20050;-81
2023/02/12 03:28:05;;;;;;;32.08;15.48;;;5.80;99.90;;;;;;4952309;28;20870;-81
2023/02/12 03:30:57;;;;;;;24.23;13.35;;;5.90;99.90;;;;;;4943511;28;20986;-81
2023/02/12 03:34:10;;;;;;;23.88;13.45;;;5.90;99.90;;;;;;4966839;28;20149;-81
2023/02/12 03:36:44;;;;;;;29.80;15.10;;;5.90;99.90;;;;;;4972774;28;20051;-83
2023/02/12 03:39:16;;;;;;;22.88;13.02;;;5.90;99.90;;;;;;4974631;28;20038;-83
2023/02/12 03:41:54;;;;;;;34.45;15.13;;;6.10;99.90;;;;;;4956607;28;20043;-83
2023/02/12 03:44:43;;;;;;;;;;;5.90;99.90;;;;;;4960628;28;20490;-84
2023/02/12 03:47:38;;;;;;;36.72;14.10;;;5.90;99.90;;;;;;4962476;28;19918;-83
2023/02/12 03:50:13;;;;;;;45.78;15.02;;;5.90;99.90;;;;;;4958653;28;20073;-83
2023/02/12 03:52:39;;;;;;;34.20;15.37;;;6.10;99.90;;;;;;4961341;28;20035;-83
2023/02/12 03:55:07;;;;;;;27.60;14.43;;;5.90;99.90;;;;;;4952791;28;20289;-83
2023/02/12 03:57:39;;;;;;;44.38;16.45;;;5.80;99.90;;;;;;4954169;28;20043;-83
2023/02/12 04:00:11;;;;;;;49.78;14.68;;;5.90;99.90;;;;;;4954564;28;20527;-83
2023/02/12 04:02:37;;;;;;;85.97;14.05;;;5.90;99.90;;;;;;4975083;28;20761;-83
2023/02/12 04:05:05;;;;;;;83.65;17.27;;;6.70;99.90;;;;;;4957823;28;20054;-83
2023/02/12 04:07:32;;;;;;;46.00;14.60;;;6.20;99.90;;;;;;4960848;28;20050;-83
2023/02/12 04:09:58;;;;;;;66.70;16.10;;;6.20;99.90;;;;;;4959317;28;20074;-83
2023/02/12 04:12:50;;;;;;;35.90;12.43;;;6.00;99.90;;;;;;4963388;28;20105;-83
2023/02/12 04:15:35;;;;;;;21.17;12.05;;;5.90;99.90;;;;;;4973733;28;20465;-83
2023/02/12 04:18:30;;;;;;;41.22;14.25;;;5.80;99.90;;;;;;4975528;28;20070;-82
2023/02/12 04:21:27;;;;;;;72.07;14.38;;;5.90;99.90;;;;;;4954715;28;20097;-83
2023/02/12 04:24:08;;;;;;;74.63;16.20;;;5.90;99.90;;;;;;4955406;28;20398;-83
2023/02/12 04:26:53;;;;;;;67.30;15.20;;;5.90;99.90;;;;;;4957152;28;20043;-84
2023/02/12 04:29:49;;;;;;;59.13;15.00;;;5.90;99.90;;;;;;4975065;28;20500;-82
2023/02/12 04:32:47;;;;;;;89.73;16.77;;;5.90;99.90;;;;;;4974905;28;20123;-83
2023/02/12 04:35:25;;;;;;;100.78;15.90;;;5.90;99.90;;;;;;4974904;28;20668;-82
2023/02/12 04:37:57;;;;;;;89.18;16.17;;;5.90;99.90;;;;;;4976213;28;20689;-83
2023/02/12 04:40:24;;;;;;;55.38;18.85;;;5.90;99.90;;;;;;4961861;28;20046;-83
2023/02/12 04:42:51;;;;;;;98.75;20.48;;;5.90;99.90;;;;;;4974506;28;20074;-83
2023/02/12 04:45:26;;;;;;;65.65;19.08;;;6.30;99.90;;;;;;4979124;28;20069;-83
2023/02/12 04:47:52;;;;;;;84.77;22.07;;;5.90;99.90;;;;;;4957502;28;20485;-83
2023/02/12 04:50:18;;;;;;;132.55;19.45;;;6.60;99.90;;;;;;4974225;28;20047;-83
2023/02/12 04:52:44;;;;;;;135.10;19.48;;;5.90;99.90;;;;;;4959008;28;20039;-83
2023/02/12 04:55:11;;;;;;;133.88;20.55;;;5.60;99.90;;;;;;4989942;28;20501;-83
2023/02/12 04:57:37;;;;;;;177.25;20.05;;;5.70;99.90;;;;;;4958897;28;20475;-83
2023/02/12 05:00:05;;;;;;;164.20;22.80;;;5.50;99.90;;;;;;4957374;28;20034;-83
2023/02/12 05:02:35;;;;;;;167.50;20.58;;;5.50;99.90;;;;;;4972121;28;20057;-82
2023/02/12 05:05:01;;;;;;;112.88;21.98;;;5.60;99.90;;;;;;4974280;28;20117;-82
2023/02/12 05:07:29;;;;;;;110.13;19.35;;;5.50;99.90;;;;;;4973759;28;20390;-82
2023/02/12 05:09:55;;;;;;;117.05;21.92;;;6.00;99.90;;;;;;4956091;28;20078;-83
2023/02/12 05:12:21;;;;;;;73.25;20.17;;;5.50;99.90;;;;;;4962672;28;20043;-83
2023/02/12 05:14:47;;;;;;;64.85;20.50;;;6.00;99.90;;;;;;4956655;28;20098;-83
2023/02/12 05:17:13;;;;;;;73.72;20.98;;;5.40;99.90;;;;;;4959220;28;20043;-83
2023/02/12 05:19:39;;;;;;;51.67;20.15;;;5.40;99.90;;;;;;4972554;28;20134;-83
2023/02/12 05:22:08;;;;;;;34.05;18.08;;;6.00;99.90;;;;;;4976132;28;20489;-83
2023/02/12 05:24:34;;;;;;;32.85;18.45;;;5.30;99.90;;;;;;4955653;28;20043;-83
2023/02/12 05:27:00;;;;;;;49.45;21.75;;;5.60;99.90;;;;;;4954714;28;20126;-83
2023/02/12 05:29:28;;;;;;;48.47;21.75;;;5.50;99.90;;;;;;4961323;28;20077;-83
2023/02/12 05:31:55;;;;;;;42.83;20.48;;;5.50;99.90;;;;;;4953477;28;20113;-83
2023/02/12 05:34:23;;;;;;;60.97;21.83;;;5.90;99.90;;;;;;4953605;28;20173;-84
2023/02/12 05:36:49;;;;;;;57.47;23.45;;;5.40;99.90;;;;;;4954996;28;20038;-82
2023/02/12 05:39:15;;;;;;;56.05;21.27;;;5.40;99.90;;;;;;4972242;28;20042;-83
2023/02/12 05:41:41;;;;;;;52.97;22.23;;;5.80;99.90;;;;;;4974595;28;20118;-83
2023/02/12 05:44:10;;;;;;;40.45;20.25;;;5.30;99.90;;;;;;4956859;28;20071;-82
2023/02/12 05:46:35;;;;;;;51.60;23.00;;;5.30;99.90;;;;;;4958252;28;20031;-82
2023/02/12 05:49:02;;;;;;;48.70;21.17;;;5.20;99.90;;;;;;4972870;28;20035;-83
2023/02/12 05:51:27;;;;;;;44.67;22.08;;;6.00;99.90;;;;;;4955347;28;20043;-83
2023/02/12 05:54:02;;;;;;;60.15;22.85;;;5.20;99.90;;;;;;4959231;28;20097;-83
2023/02/12 05:56:35;;;;;;;72.65;24.02;;;5.30;99.90;;;;;;4954123;28;20067;-83
2023/02/12 05:59:05;;;;;;;66.60;22.83;;;5.20;99.90;;;;;;4950733;28;20493;-82
2023/02/12 06:01:39;;;;;;;72.00;24.20;;;5.70;99.90;;;;;;4971247;28;20058;-82
2023/02/12 06:04:14;;;;;;;54.75;22.77;;;5.40;99.90;;;;;;4975438;28;20122;-82
2023/02/12 06:06:41;;;;;;;62.25;21.98;;;5.40;99.90;;;;;;4949739;28;20042;-82
2023/02/12 06:09:07;;;;;;;56.40;23.20;;;5.30;99.90;;;;;;4952214;28;20035;-82
2023/02/12 06:11:33;;;;;;;45.47;21.42;;;5.90;99.90;;;;;;4954124;28;20043;-82
2023/02/12 06:14:07;;;;;;;42.38;21.08;;;5.30;99.90;;;;;;4957527;28;20042;-83
2023/02/12 06:16:34;;;;;;;44.83;20.35;;;5.20;99.90;;;;;;4965905;28;20087;-82
2023/02/12 06:19:03;;;;;;;49.10;21.63;;;5.50;99.90;;;;;;4957450;28;20114;-82
2023/02/12 06:21:29;;;;;;;39.67;21.23;;;5.40;99.90;;;;;;4973902;28;20113;-82
2023/02/12 06:23:55;;;;;;;45.22;22.95;;;5.90;99.90;;;;;;4956263;28;20535;-82
2023/02/12 06:26:22;;;;;;;49.72;22.58;;;5.10;99.90;;;;;;4959992;28;20160;-82
2023/02/12 06:28:48;;;;;;;42.97;21.20;;;5.50;99.90;;;;;;4970432;28;20054;-82
2023/02/12 06:31:25;;;;;;;40.47;22.00;;;5.30;99.90;;;;;;4971104;28;20424;-81
2023/02/12 06:33:52;;;;;;;42.65;22.42;;;5.30;99.90;;;;;;4968178;28;20089;-81
2023/02/12 06:36:18;;;;;;;39.15;21.67;;;5.10;99.90;;;;;;4955719;28;20492;-82
2023/02/12 06:38:44;;;;;;;36.45;21.02;;;5.20;99.90;;;;;;4972285;28;20074;-82
2023/02/12 06:41:10;;;;;;;48.00;22.20;;;5.20;99.90;;;;;;4957131;28;20205;-82
2023/02/12 06:43:36;;;;;;;61.17;25.10;;;5.30;99.90;;;;;;4970842;28;20444;-82
2023/02/12 06:46:02;;;;;;;68.38;25.58;;;5.20;99.90;;;;;;4969035;28;20074;-82
2023/02/12 06:48:29;;;;;;;49.03;23.13;;;5.20;99.90;;;;;;4956106;28;20038;-82
2023/02/12 06:50:55;;;;;;;53.55;23.30;;;5.80;99.90;;;;;;4954742;28;20043;-81
2023/02/12 06:53:20;;;;;;;61.45;25.45;;;5.70;99.90;;;;;;4957794;28;20065;-81
2023/02/12 06:55:46;;;;;;;50.80;24.15;;;5.20;99.90;;;;;;4969359;28;20035;-81
2023/02/12 06:58:12;;;;;;;89.07;28.48;;;5.20;99.90;;;;;;4955770;28;20054;-81
2023/02/12 07:00:37;;;;;;;69.32;25.77;;;5.30;99.90;;;;;;4969388;28;20039;-81
2023/02/12 07:03:03;;;;;;;91.28;27.92;;;5.80;99.90;;;;;;4951725;28;20460;-81
2023/02/12 07:05:29;;;;;;;92.18;29.25;;;5.20;99.90;;;;;;4955766;28;20047;-84
2023/02/12 07:07:55;;;;;;;86.93;29.65;;;5.70;99.90;;;;;;4968772;28;20031;-82
2023/02/12 07:10:20;;;;;;;84.00;30.00;;;5.30;99.90;;;;;;4965130;28;20502;-83
2023/02/12 07:12:46;;;;;;;74.50;28.80;;;5.30;99.90;;;;;;4964821;28;20042;-82
2023/02/12 07:15:12;;;;;;;97.00;30.65;;;6.40;99.90;;;;;;4952048;28;20047;-82
2023/02/12 07:17:38;;;;;;;68.75;27.73;;;5.70;99.90;;;;;;4954946;28;20043;-82
2023/02/12 07:20:05;;;;;;;56.38;27.13;;;5.30;99.90;;;;;;4967299;28;20046;-82
2023/02/12 07:22:30;;;;;;;64.55;29.75;;;5.40;99.90;;;;;;4952464;28;20480;-82
2023/02/12 07:24:56;;;;;;;56.58;27.05;;;5.90;99.90;;;;;;4968534;28;20039;-82
2023/02/12 07:27:22;;;;;;;75.95;30.13;;;5.70;99.90;;;;;;4950183;28;20073;-82
2023/02/12 07:29:48;;;;;;;54.75;27.35;;;5.40;99.90;;;;;;4968073;28;20086;-82
2023/02/12 07:32:13;;;;;;;56.20;27.92;;;5.70;99.90;;;;;;4951753;28;20050;-83
2023/02/12 07:34:39;;;;;;;67.55;28.27;;;5.60;99.90;;;;;;4952781;28;20046;-82
2023/02/12 07:37:06;;;;;;;69.65;29.10;;;5.70;99.90;;;;;;4956368;28;20034;-80
2023/02/12 07:39:56;;;;;;;67.10;28.60;;;5.50;99.90;;;;;;4975672;28;20050;-83
2023/02/12 07:42:22;;;;;;;85.90;31.55;;;5.50;99.90;;;;;;4959902;28;20054;-84
2023/02/12 07:45:17;;;;;;;59.75;28.35;;;5.70;99.90;;;;;;4954148;28;20540;-81
2023/02/12 07:47:43;;;;;;;65.85;28.65;;;5.20;99.90;;;;;;4950765;28;20110;-83
2023/02/12 07:50:10;;;;;;;64.60;28.77;;;5.80;99.90;;;;;;4969510;28;20030;-82
2023/02/12 07:52:35;;;;;;;74.88;32.30;;;5.60;99.90;;;;;;4975512;28;20036;-82
2023/02/12 07:55:01;;;;;;;54.30;28.55;;;6.30;99.90;;;;;;4965606;28;20043;-81
2023/02/12 07:57:27;;;;;;;70.97;30.00;;;5.90;99.90;;;;;;4970120;28;20406;-81
2023/02/12 07:59:53;;;;;;;58.25;27.65;;;6.40;99.90;;;;;;4969949;28;20054;-81
2023/02/12 08:02:18;;;;;;;62.63;27.98;;;5.80;99.90;;;;;;4952051;28;20141;-83
2023/02/12 08:04:44;;;;;;;67.35;29.05;;;5.70;99.90;;;;;;4955828;28;20395;-82
2023/02/12 08:07:10;;;;;;;65.85;27.85;;;5.70;99.90;;;;;;4950803;28;20077;-82
2023/02/12 08:09:50;;;;;;;;;;;;;;;;;;;;;
2023/02/12 08:12:17;;;;;;;54.80;25.80;;;6.30;99.90;;;;;;4962496;28;20050;-82
2023/02/12 08:14:43;;;;;;;67.72;28.58;;;6.00;99.90;;;;;;4947569;28;20039;-83
2023/02/12 08:17:09;;;;;;;58.25;28.42;;;5.90;99.90;;;;;;4963410;28;20122;-82
2023/02/12 08:19:38;;;;;;;59.13;28.13;;;6.00;99.90;;;;;;4964320;28;20047;-81
2023/02/12 08:22:05;;;;;;;59.03;28.58;;;5.60;99.90;;;;;;4944094;28;20075;-81
2023/02/12 08:24:31;;;;;;;53.17;26.23;;;5.90;99.90;;;;;;4964072;28;20121;-82
2023/02/12 08:26:57;;;;;;;65.75;29.15;;;6.10;99.90;;;;;;4949726;28;20031;-81
2023/02/12 08:29:26;;;;;;;59.28;27.98;;;6.30;99.90;;;;;;4964329;28;20126;-81
2023/02/12 08:31:57;;;;;;;56.35;27.38;;;6.10;99.90;;;;;;4940430;28;20123;-80
2023/02/12 08:36:58;;;;;;;54.70;27.00;;;6.10;99.90;;;;;;4987413;23;20051;-81
2023/02/12 08:39:26;;;;;;;48.20;26.00;;;6.40;99.90;;;;;;4967350;28;20038;-82
2023/02/12 08:41:57;;;;;;;45.65;25.88;;;6.40;99.90;;;;;;4952962;28;20043;-81
2023/02/12 08:44:52;;;;;;;52.97;26.23;;;6.40;99.90;;;;;;4945257;28;20086;-84
2023/02/12 08:48:06;;;;;;;;;;;;;;;;;;;;;
2023/02/12 09:07:07;;;;;;;45.92;23.88;;;6.50;99.90;;;;;;5038487;23;20057;-83
2023/02/12 09:13:13;;;;;;;;;;;;;;;;;;;;;
2023/02/12 09:15:54;;;;;;;;;;;;;;;;;;;;;
2023/02/12 09:41:36;;;;;;;;;;;;;;;;;;;;;
2023/02/12 10:07:30;;;;;;;;;;;;;;;;;;;;;
2023/02/12 10:58:49;;;;;;;16.70;11.50;;;9.60;99.90;;;;;;4869786;29;20048;-83
2023/02/12 11:05:59;;;;;;;16.25;11.68;;;9.70;99.90;;;;;;4862391;29;20077;-85
2023/02/12 11:17:28;;;;;;;19.80;9.75;;;10.00;99.90;;;;;;4886949;29;20044;-84
2023/02/12 11:20:58;;;;;;;16.45;10.35;;;9.90;99.90;;;;;;4890495;29;20081;-84
2023/02/12 11:24:54;;;;;;;15.57;10.90;;;10.10;99.90;;;;;;4798067;29;20051;-84
2023/02/12 11:32:15;;;;;;;14.18;11.00;;;10.10;99.90;;;;;;4800688;29;20045;-84
2023/02/12 11:43:17;;;;;;;14.60;10.63;;;10.20;99.90;;;;;;4787757;29;20108;-85
2023/02/12 12:08:29;;;;;;;11.07;6.88;;;10.30;99.90;;;;;;1288032;26;20529;-83
2023/02/12 12:23:47;;;;;;;;;;;;;;;;;;;;;
2023/02/12 12:26:59;;;;;;;7.95;5.55;;;10.20;99.90;;;;;;4947540;28;20090;-84
2023/02/12 12:30:30;;;;;;;7.53;6.05;;;10.10;99.90;;;;;;4903562;29;20051;-84
2023/02/12 12:37:23;;;;;;;8.95;6.85;;;10.10;99.90;;;;;;4918560;29;20123;-82
2023/02/12 12:41:05;;;;;;;8.70;5.22;;;10.60;99.90;;;;;;4909545;28;20135;-80
2023/02/12 12:43:53;;;;;;;7.00;4.75;;;10.10;99.90;;;;;;4929730;28;20139;-83
2023/02/12 12:46:34;;;;;;;6.60;4.72;;;10.40;99.90;;;;;;4969965;28;20042;-83
2023/02/12 12:49:48;;;;;;;9.38;5.80;;;10.10;99.90;;;;;;4968320;28;20058;-83
2023/02/12 12:52:42;;;;;;;5.03;3.85;;;10.00;99.90;;;;;;4958465;28;20070;-82
2023/02/12 12:55:30;;;;;;;7.93;4.30;;;10.30;99.90;;;;;;4961624;28;20043;-83
2023/02/12 12:58:11;;;;;;;5.82;4.20;;;10.00;99.90;;;;;;4953059;28;20055;-82
2023/02/12 13:01:11;;;;;;;5.70;3.80;;;9.40;99.90;;;;;;4950550;28;20115;-82
2023/02/12 13:04:16;;;;;;;6.37;4.70;;;9.90;99.90;;;;;;4966137;28;20038;-82
2023/02/12 13:06:50;;;;;;;5.97;5.00;;;10.10;99.90;;;;;;4947156;28;20039;-81
2023/02/12 13:09:35;;;;;;;6.82;4.60;;;10.10;99.90;;;;;;4968027;28;20038;-81
2023/02/12 13:12:27;;;;;;;3.80;2.63;;;10.10;99.90;;;;;;4964089;28;20161;-81
2023/02/12 13:15:36;;;;;;;4.60;3.00;;;10.10;99.90;;;;;;4977743;28;20042;-81
2023/02/12 13:18:17;;;;;;;4.82;2.65;;;10.10;99.90;;;;;;4925617;28;20047;-82
2023/02/12 13:21:05;;;;;;;3.53;1.88;;;10.00;99.90;;;;;;4964925;28;20039;-82
2023/02/12 13:24:19;;;;;;;3.58;2.00;;;10.10;99.90;;;;;;4965851;28;20409;-80
2023/02/12 13:26:52;;;;;;;3.65;1.83;;;10.10;99.90;;;;;;4961723;28;20051;-80
2023/02/12 13:29:23;;;;;;;3.78;1.50;;;10.00;99.90;;;;;;4953660;28;20124;-82
2023/02/12 13:32:02;;;;;;;3.15;1.77;;;10.30;99.90;;;;;;4948073;28;20049;-81
2023/02/12 13:34:31;;;;;;;6.13;2.17;;;10.50;99.90;;;;;;4965368;28;20122;-80
2023/02/12 13:37:00;;;;;;;3.15;1.95;;;10.20;99.90;;;;;;4963384;28;20076;-81
2023/02/12 13:39:39;;;;;;;2.40;1.02;;;10.10;99.90;;;;;;4958079;28;20050;-80
2023/02/12 13:42:13;;;;;;;7.10;2.33;;;10.50;99.90;;;;;;4945865;28;20057;-81
2023/02/12 13:44:49;;;;;;;3.45;1.10;;;10.00;99.90;;;;;;4964258;28;20104;-80
2023/02/12 13:47:37;;;;;;;3.13;1.30;;;10.30;99.90;;;;;;4968080;28;20034;-80
2023/02/12 13:50:32;;;;;;;3.72;1.83;;;9.90;99.90;;;;;;4966215;28;20062;-80
2023/02/12 13:53:08;;;;;;;5.03;2.50;;;9.90;99.90;;;;;;4946709;28;20106;-79
2023/02/12 13:56:14;;;;;;;3.83;2.70;;;10.10;99.90;;;;;;4950170;28;20042;-80
2023/02/12 13:58:48;;;;;;;5.40;3.50;;;9.80;99.90;;;;;;4962595;28;20117;-79
2023/02/12 14:01:32;;;;;;;10.57;4.18;;;9.80;99.90;;;;;;4960256;28;20089;-78
2023/02/12 14:04:21;;;;;;;6.47;4.55;;;9.70;99.90;;;;;;4963011;28;20409;-78
2023/02/12 14:07:01;;;;;;;5.40;3.45;;;9.70;99.90;;;;;;4946288;28;20117;-79
2023/02/12 14:09:32;;;;;;;4.47;2.13;;;9.90;99.90;;;;;;4947318;28;20082;-78
2023/02/12 14:12:00;;;;;;;5.30;2.17;;;9.80;99.90;;;;;;4962946;28;20074;-79
2023/02/12 14:14:40;;;;;;;7.22;3.20;;;9.90;99.90;;;;;;4959154;28;20055;-79
2023/02/12 14:17:35;;;;;;;3.42;2.40;;;9.70;99.90;;;;;;4962056;28;20058;-80
2023/02/12 14:20:20;;;;;;;3.90;2.83;;;9.60;99.90;;;;;;4938825;28;20582;-80
2023/02/12 14:22:46;;;;;;;4.80;2.63;;;9.60;99.90;;;;;;4943982;28;20074;-79
2023/02/12 14:25:24;;;;;;;3.22;2.92;;;9.60;99.90;;;;;;4957342;28;20121;-79
2023/02/12 14:27:55;;;;;;;5.85;3.33;;;10.30;99.90;;;;;;4943746;28;20469;-79
2023/02/12 14:30:29;;;;;;;4.65;2.63;;;9.60;99.90;;;;;;4944772;28;20046;-79
2023/02/12 14:33:20;;;;;;;4.15;2.25;;;9.50;99.90;;;;;;4955227;28;20065;-79
2023/02/12 14:35:48;;;;;;;3.28;2.78;;;9.50;99.90;;;;;;4940836;28;20058;-78
2023/02/12 14:38:14;;;;;;;4.50;2.60;;;9.90;99.90;;;;;;4944606;28;20401;-78
2023/02/12 14:40:46;;;;;;;5.30;2.55;;;10.30;99.90;;;;;;4959110;28;20039;-78
2023/02/12 14:46:21;;;;;;;4.60;2.97;;;9.60;99.90;;;;;;4959772;28;20070;-78
2023/02/12 14:48:55;;;;;;;5.22;3.08;;;9.70;99.90;;;;;;4958144;28;20082;-79
2023/02/12 14:51:50;;;;;;;3.55;2.55;;;9.30;99.90;;;;;;4945000;28;20046;-79
2023/02/12 14:54:29;;;;;;;3.92;2.83;;;9.30;99.90;;;;;;4945705;28;20501;-79
2023/02/12 14:56:57;;;;;;;4.78;3.22;;;9.30;99.90;;;;;;4963073;28;20799;-78
2023/02/12 14:59:25;;;;;;;5.03;3.15;;;9.20;99.90;;;;;;4944474;28;20106;-79
2023/02/12 15:01:53;;;;;;;5.75;3.17;;;9.30;99.90;;;;;;4959912;28;20046;-79
2023/02/12 15:04:29;;;;;;;3.78;2.03;;;9.20;99.90;;;;;;4962728;28;20047;-80
2023/02/12 15:07:23;;;;;;;2.58;1.92;;;9.40;99.90;;;;;;4947559;28;20046;-80
2023/02/12 15:10:06;;;;;;;2.33;2.00;;;9.30;99.90;;;;;;4950163;28;20051;-80
2023/02/12 15:12:40;;;;;;;3.83;1.65;;;9.10;99.90;;;;;;4946604;28;20047;-85
2023/02/12 15:15:26;;;;;;;3.25;1.70;;;9.00;99.90;;;;;;4932165;28;20043;-81
2023/02/12 15:17:58;;;;;;;4.00;2.05;;;9.40;99.90;;;;;;4931841;28;21435;-81
2023/02/12 15:20:33;;;;;;;2.28;1.73;;;9.10;99.90;;;;;;4962540;28;20850;-81
2023/02/12 15:23:01;;;;;;;3.92;2.00;;;9.10;99.90;;;;;;4947835;28;20054;-82
2023/02/12 15:25:33;;;;;;;3.30;1.92;;;9.10;99.90;;;;;;4955456;28;20079;-83
2023/02/12 15:28:22;;;;;;;2.33;1.95;;;9.00;99.90;;;;;;4933716;28;20057;-82
2023/02/12 15:31:00;;;;;;;3.85;2.08;;;9.00;99.90;;;;;;4928132;28;20051;-84
2023/02/12 15:34:34;;;;;;;;;;;;;;;;;;;;;
2023/02/12 15:37:26;;;;;;;3.08;1.95;;;9.30;99.90;;;;;;4950528;28;20726;-80
2023/02/12 15:39:56;;;;;;;3.58;2.38;;;8.90;99.90;;;;;;4937241;28;21297;-80
2023/02/12 15:42:26;;;;;;;2.17;1.88;;;8.90;99.90;;;;;;4951581;28;20047;-80
2023/02/12 15:45:12;;;;;;;3.47;2.38;;;8.90;99.90;;;;;;4935575;28;20065;-81
2023/02/12 15:47:40;;;;;;;3.78;1.92;;;8.90;99.90;;;;;;4953528;28;20070;-80
2023/02/12 15:50:11;;;;;;;2.85;2.35;;;8.90;99.90;;;;;;4952565;28;20042;-80
2023/02/12 15:52:40;;;;;;;6.25;1.65;;;9.50;99.90;;;;;;4938087;28;20035;-81
2023/02/12 15:55:13;;;;;;;2.83;1.70;;;8.70;99.90;;;;;;4937222;28;20055;-80
2023/02/12 15:57:39;;;;;;;4.15;2.17;;;8.70;99.90;;;;;;4937330;28;20054;-82
2023/02/12 16:00:19;;;;;;;3.75;2.10;;;8.80;99.90;;;;;;4938005;28;20055;-81
2023/02/12 16:02:53;;;;;;;2.40;1.83;;;8.80;99.90;;;;;;4939112;28;20050;-80
2023/02/12 16:05:48;;;;;;;;;;;;;;;;;;;;;
2023/02/12 16:08:24;;;;;;;3.03;2.45;;;8.70;99.90;;;;;;4954327;28;20509;-83
2023/02/12 16:10:55;;;;;;;3.45;2.53;;;8.70;99.90;;;;;;4946663;28;20397;-83
2023/02/12 16:14:11;;;;;;;6.45;3.10;;;8.80;99.90;;;;;;4946555;28;20054;-83
2023/02/12 16:16:49;;;;;;;4.32;3.25;;;8.80;99.90;;;;;;4946770;28;20579;-82
2023/02/12 16:23:34;;;;;;;3.38;3.08;;;8.60;99.90;;;;;;4961622;28;20102;-82
2023/02/12 16:26:49;;;;;;;;;;;;;;;;;;;;;
2023/02/12 16:47:41;;;;;;;6.47;4.20;;;8.40;99.90;;;;;;5381907;22;20329;-82
2023/02/12 16:53:56;;;;;;;;;;;;;;;;;;;;;
2023/02/12 16:56:51;;;;;;;7.10;4.00;;;8.30;99.90;;;;;;4968635;28;20082;-81
2023/02/12 17:00:02;;;;;;;4.60;3.80;;;8.30;99.90;;;;;;4947532;28;20051;-84
2023/02/12 17:20:16;;;;;;;4.53;4.10;;;8.20;99.90;;;;;;5185029;23;20540;-81
2023/02/12 17:24:21;;;;;;;6.45;3.83;;;8.20;99.90;;;;;;4943879;28;20520;-84
2023/02/12 17:31:52;;;;;;;5.28;3.50;;;8.10;99.90;;;;;;4873322;29;20097;-86
2023/02/12 17:57:42;;;;;;;7.03;3.70;;;7.80;99.90;;;;;;4820339;29;20046;-83
2023/02/12 18:01:18;;;;;;;5.03;4.53;;;8.00;99.90;;;;;;4820652;29;20153;-82
2023/02/12 18:20:43;;;;;;;7.50;4.63;;;7.90;99.90;;;;;;4825844;29;20643;-81
2023/02/12 18:32:23;;;;;;;;;;;;;;;;;;;;;
2023/02/12 18:36:06;;;;;;;5.93;4.00;;;7.80;99.90;;;;;;4920029;28;20134;-82
2023/02/12 18:39:44;;;;;;;4.45;4.05;;;7.00;99.90;;;;;;4897230;29;20079;-83
2023/02/12 18:46:59;;;;;;;7.70;4.60;;;7.80;99.90;;;;;;5428515;23;20126;-84
2023/02/12 21:04:40;;;;;;;8.75;8.00;;;7.40;99.90;;;;;;5283700;23;20498;-81